sensor_id;sensor_type;location;lat;lon;timestamp;P1;durP1;ratioP1;P2;durP2;ratioP2
3881;SDS011;1956;53.482;10.238;2022-12-26T00:01:46;100.80;;;15.80;;
3881;SDS011;1956;53.482;10.238;2022-12-26T00:06:48;123.50;;;19.37;;
3881;SDS011;1956;53.482;10.238;2022-12-26T00:11:48;188.83;;;21.13;;
3881;SDS011;1956;53.482;10.238;2022-12-26T00:16:48;98.47;;;15.97;;
3881;SDS011;1956;53.482;10.238;2022-12-26T00:21:49;260.27;;;22.63;;
3881;SDS011;1956;53.482;10.238;2022-12-26T00:26:49;303.60;;;26.30;;
3881;SDS011;1956;53.482;10.238;2022-12-26T00:31:50;496.43;;;35.50;;
3881;SDS011;1956;53.482;10.238;2022-12-26T00:36:50;512.50;;;35.60;;
3881;SDS011;1956;53.482;10.238;2022-12-26T00:41:50;493.23;;;34.57;;
3881;SDS011;1956;53.482;10.238;2022-12-26T00:46:51;546.27;;;37.73;;
3881;SDS011;1956;53.482;10.238;2022-12-26T00:51:51;204.03;;;21.70;;
3881;SDS011;1956;53.482;10.238;2022-12-26T00:56:51;361.33;;;23.40;;
3881;SDS011;1956;53.482;10.238;2022-12-26T01:01:52;364.67;;;24.60;;
3881;SDS011;1956;53.482;10.238;2022-12-26T01:06:52;154.60;;;17.30;;
3881;SDS011;1956;53.482;10.238;2022-12-26T01:11:53;411.67;;;31.77;;
3881;SDS011;1956;53.482;10.238;2022-12-26T01:16:53;420.80;;;29.90;;
3881;SDS011;1956;53.482;10.238;2022-12-26T01:21:53;255.80;;;25.30;;
3881;SDS011;1956;53.482;10.238;2022-12-26T01:26:54;484.60;;;37.20;;
3881;SDS011;1956;53.482;10.238;2022-12-26T01:31:54;265.57;;;25.93;;
3881;SDS011;1956;53.482;10.238;2022-12-26T01:36:54;262.17;;;25.17;;
3881;SDS011;1956;53.482;10.238;2022-12-26T01:41:55;521.97;;;36.40;;
3881;SDS011;1956;53.482;10.238;2022-12-26T01:46:55;249.50;;;24.40;;
3881;SDS011;1956;53.482;10.238;2022-12-26T01:51:56;297.10;;;27.07;;
3881;SDS011;1956;53.482;10.238;2022-12-26T01:57:00;494.87;;;36.20;;
3881;SDS011;1956;53.482;10.238;2022-12-26T02:02:03;255.63;;;25.77;;
3881;SDS011;1956;53.482;10.238;2022-12-26T02:07:04;510.40;;;34.47;;
3881;SDS011;1956;53.482;10.238;2022-12-26T02:12:18;412.13;;;30.17;;
3881;SDS011;1956;53.482;10.238;2022-12-26T02:17:23;359.83;;;28.53;;
3881;SDS011;1956;53.482;10.238;2022-12-26T02:22:39;492.70;;;33.43;;
3881;SDS011;1956;53.482;10.238;2022-12-26T02:39:36;262.17;;;24.37;;
3881;SDS011;1956;53.482;10.238;2022-12-26T02:45:08;425.03;;;31.27;;
3881;SDS011;1956;53.482;10.238;2022-12-26T02:51:38;398.10;;;28.20;;
3881;SDS011;1956;53.482;10.238;2022-12-26T02:56:28;346.80;;;27.80;;
3881;SDS011;1956;53.482;10.238;2022-12-26T03:01:50;452.83;;;34.83;;
3881;SDS011;1956;53.482;10.238;2022-12-26T03:07:21;458.03;;;32.23;;
3881;SDS011;1956;53.482;10.238;2022-12-26T03:12:49;281.17;;;24.00;;
3881;SDS011;1956;53.482;10.238;2022-12-26T03:18:11;288.57;;;25.73;;
3881;SDS011;1956;53.482;10.238;2022-12-26T03:23:12;279.53;;;23.60;;
3881;SDS011;1956;53.482;10.238;2022-12-26T03:28:15;353.50;;;26.70;;
3881;SDS011;1956;53.482;10.238;2022-12-26T03:33:22;522.17;;;35.30;;
3881;SDS011;1956;53.482;10.238;2022-12-26T03:38:52;436.47;;;26.23;;
3881;SDS011;1956;53.482;10.238;2022-12-26T03:44:28;458.93;;;31.10;;
3881;SDS011;1956;53.482;10.238;2022-12-26T03:49:54;505.97;;;34.30;;
3881;SDS011;1956;53.482;10.238;2022-12-26T03:55:22;471.87;;;32.23;;
3881;SDS011;1956;53.482;10.238;2022-12-26T04:00:44;543.47;;;38.80;;
3881;SDS011;1956;53.482;10.238;2022-12-26T04:06:04;388.17;;;31.63;;
3881;SDS011;1956;53.482;10.238;2022-12-26T04:11:31;324.23;;;30.00;;
3881;SDS011;1956;53.482;10.238;2022-12-26T04:17:01;303.67;;;24.70;;
3881;SDS011;1956;53.482;10.238;2022-12-26T04:28:22;482.90;;;34.70;;
3881;SDS011;1956;53.482;10.238;2022-12-26T04:33:42;566.90;;;40.20;;
3881;SDS011;1956;53.482;10.238;2022-12-26T04:39:03;364.50;;;28.77;;
3881;SDS011;1956;53.482;10.238;2022-12-26T04:44:24;340.00;;;29.27;;
3881;SDS011;1956;53.482;10.238;2022-12-26T04:49:26;276.77;;;26.20;;
3881;SDS011;1956;53.482;10.238;2022-12-26T04:54:45;323.13;;;29.67;;
3881;SDS011;1956;53.482;10.238;2022-12-26T04:59:45;410.63;;;32.37;;
3881;SDS011;1956;53.482;10.238;2022-12-26T05:04:45;303.37;;;28.77;;
3881;SDS011;1956;53.482;10.238;2022-12-26T05:10:05;575.97;;;42.20;;
3881;SDS011;1956;53.482;10.238;2022-12-26T05:15:07;425.23;;;32.77;;
3881;SDS011;1956;53.482;10.238;2022-12-26T05:20:09;382.23;;;30.93;;
3881;SDS011;1956;53.482;10.238;2022-12-26T05:25:31;407.00;;;32.63;;
3881;SDS011;1956;53.482;10.238;2022-12-26T05:30:52;332.73;;;29.87;;
3881;SDS011;1956;53.482;10.238;2022-12-26T05:35:52;113.67;;;23.63;;
3881;SDS011;1956;53.482;10.238;2022-12-26T05:40:53;271.33;;;30.07;;
3881;SDS011;1956;53.482;10.238;2022-12-26T05:45:53;179.80;;;24.07;;
3881;SDS011;1956;53.482;10.238;2022-12-26T05:50:57;256.73;;;26.60;;
3881;SDS011;1956;53.482;10.238;2022-12-26T05:56:05;395.07;;;33.60;;
3881;SDS011;1956;53.482;10.238;2022-12-26T06:01:08;519.93;;;37.67;;
3881;SDS011;1956;53.482;10.238;2022-12-26T06:06:13;185.60;;;26.60;;
3881;SDS011;1956;53.482;10.238;2022-12-26T06:11:13;142.67;;;24.43;;
3881;SDS011;1956;53.482;10.238;2022-12-26T06:16:15;227.67;;;28.63;;
3881;SDS011;1956;53.482;10.238;2022-12-26T06:21:17;256.57;;;29.70;;
3881;SDS011;1956;53.482;10.238;2022-12-26T06:26:18;110.30;;;21.00;;
3881;SDS011;1956;53.482;10.238;2022-12-26T06:31:19;120.90;;;21.43;;
3881;SDS011;1956;53.482;10.238;2022-12-26T06:36:22;74.53;;;18.77;;
3881;SDS011;1956;53.482;10.238;2022-12-26T06:41:24;139.43;;;23.17;;
3881;SDS011;1956;53.482;10.238;2022-12-26T06:46:24;140.30;;;21.63;;
3881;SDS011;1956;53.482;10.238;2022-12-26T06:51:26;59.90;;;18.03;;
3881;SDS011;1956;53.482;10.238;2022-12-26T06:56:28;50.40;;;16.30;;
3881;SDS011;1956;53.482;10.238;2022-12-26T07:01:29;54.50;;;15.93;;
3881;SDS011;1956;53.482;10.238;2022-12-26T07:06:34;47.47;;;15.80;;
3881;SDS011;1956;53.482;10.238;2022-12-26T07:11:36;59.07;;;16.33;;
3881;SDS011;1956;53.482;10.238;2022-12-26T07:16:38;83.67;;;18.67;;
3881;SDS011;1956;53.482;10.238;2022-12-26T07:21:40;46.90;;;15.70;;
3881;SDS011;1956;53.482;10.238;2022-12-26T07:26:41;34.37;;;13.50;;
3881;SDS011;1956;53.482;10.238;2022-12-26T07:31:41;41.57;;;14.77;;
3881;SDS011;1956;53.482;10.238;2022-12-26T07:36:42;44.13;;;16.03;;
3881;SDS011;1956;53.482;10.238;2022-12-26T07:41:42;43.87;;;14.70;;
3881;SDS011;1956;53.482;10.238;2022-12-26T07:46:58;40.80;;;14.67;;
3881;SDS011;1956;53.482;10.238;2022-12-26T07:51:59;60.67;;;18.50;;
3881;SDS011;1956;53.482;10.238;2022-12-26T07:57:00;61.10;;;19.73;;
3881;SDS011;1956;53.482;10.238;2022-12-26T08:02:01;59.93;;;21.17;;
3881;SDS011;1956;53.482;10.238;2022-12-26T08:07:03;137.77;;;27.40;;
3881;SDS011;1956;53.482;10.238;2022-12-26T08:12:04;142.70;;;27.70;;
3881;SDS011;1956;53.482;10.238;2022-12-26T08:17:04;99.23;;;24.97;;
3881;SDS011;1956;53.482;10.238;2022-12-26T08:22:05;283.53;;;34.50;;
3881;SDS011;1956;53.482;10.238;2022-12-26T08:27:06;146.53;;;30.47;;
3881;SDS011;1956;53.482;10.238;2022-12-26T08:32:06;99.87;;;29.13;;
3881;SDS011;1956;53.482;10.238;2022-12-26T08:37:06;127.90;;;31.07;;
3881;SDS011;1956;53.482;10.238;2022-12-26T08:42:07;110.10;;;29.67;;
3881;SDS011;1956;53.482;10.238;2022-12-26T08:47:07;138.50;;;30.53;;
3881;SDS011;1956;53.482;10.238;2022-12-26T08:52:08;153.60;;;32.33;;
3881;SDS011;1956;53.482;10.238;2022-12-26T08:57:08;131.83;;;32.43;;
3881;SDS011;1956;53.482;10.238;2022-12-26T09:02:09;190.20;;;33.77;;
3881;SDS011;1956;53.482;10.238;2022-12-26T09:07:10;106.33;;;29.77;;
3881;SDS011;1956;53.482;10.238;2022-12-26T09:12:10;151.23;;;33.50;;
3881;SDS011;1956;53.482;10.238;2022-12-26T09:17:11;98.80;;;29.63;;
3881;SDS011;1956;53.482;10.238;2022-12-26T09:22:11;97.33;;;28.90;;
3881;SDS011;1956;53.482;10.238;2022-12-26T09:27:30;149.27;;;34.17;;
3881;SDS011;1956;53.482;10.238;2022-12-26T09:32:31;92.57;;;28.93;;
3881;SDS011;1956;53.482;10.238;2022-12-26T09:37:33;111.23;;;28.87;;
3881;SDS011;1956;53.482;10.238;2022-12-26T09:42:38;92.47;;;27.20;;
3881;SDS011;1956;53.482;10.238;2022-12-26T09:53:31;82.50;;;25.60;;
3881;SDS011;1956;53.482;10.238;2022-12-26T09:58:35;92.67;;;25.10;;
3881;SDS011;1956;53.482;10.238;2022-12-26T10:03:42;74.10;;;24.53;;
3881;SDS011;1956;53.482;10.238;2022-12-26T10:08:57;71.37;;;24.70;;
3881;SDS011;1956;53.482;10.238;2022-12-26T10:15:04;74.40;;;23.43;;
3881;SDS011;1956;53.482;10.238;2022-12-26T10:25:56;59.33;;;23.20;;
3881;SDS011;1956;53.482;10.238;2022-12-26T10:31:01;74.43;;;23.37;;
3881;SDS011;1956;53.482;10.238;2022-12-26T10:36:07;73.80;;;22.77;;
3881;SDS011;1956;53.482;10.238;2022-12-26T10:46:44;76.20;;;25.10;;
3881;SDS011;1956;53.482;10.238;2022-12-26T10:51:51;64.03;;;22.43;;
3881;SDS011;1956;53.482;10.238;2022-12-26T10:56:55;80.13;;;24.33;;
3881;SDS011;1956;53.482;10.238;2022-12-26T11:01:56;75.80;;;26.20;;
3881;SDS011;1956;53.482;10.238;2022-12-26T11:07:11;82.97;;;25.80;;
3881;SDS011;1956;53.482;10.238;2022-12-26T11:17:41;62.70;;;21.40;;
3881;SDS011;1956;53.482;10.238;2022-12-26T11:22:43;70.97;;;23.10;;
3881;SDS011;1956;53.482;10.238;2022-12-26T11:27:46;58.10;;;22.63;;
3881;SDS011;1956;53.482;10.238;2022-12-26T11:33:10;59.30;;;20.83;;
3881;SDS011;1956;53.482;10.238;2022-12-26T11:38:22;58.83;;;21.40;;
3881;SDS011;1956;53.482;10.238;2022-12-26T11:43:35;60.87;;;22.63;;
3881;SDS011;1956;53.482;10.238;2022-12-26T11:48:35;68.83;;;21.63;;
3881;SDS011;1956;53.482;10.238;2022-12-26T11:53:35;56.13;;;21.03;;
3881;SDS011;1956;53.482;10.238;2022-12-26T11:58:36;49.90;;;18.60;;
3881;SDS011;1956;53.482;10.238;2022-12-26T12:03:40;60.93;;;19.23;;
3881;SDS011;1956;53.482;10.238;2022-12-26T12:08:52;45.67;;;18.47;;
3881;SDS011;1956;53.482;10.238;2022-12-26T12:14:18;41.03;;;17.33;;
3881;SDS011;1956;53.482;10.238;2022-12-26T12:25:06;42.13;;;16.70;;
3881;SDS011;1956;53.482;10.238;2022-12-26T12:30:32;48.07;;;17.23;;
3881;SDS011;1956;53.482;10.238;2022-12-26T13:04:26;23.87;;;12.80;;
3881;SDS011;1956;53.482;10.238;2022-12-26T13:09:37;26.33;;;14.70;;
3881;SDS011;1956;53.482;10.238;2022-12-26T13:14:49;25.27;;;13.40;;
3881;SDS011;1956;53.482;10.238;2022-12-26T13:20:03;21.13;;;12.70;;
3881;SDS011;1956;53.482;10.238;2022-12-26T13:25:05;30.43;;;13.07;;
3881;SDS011;1956;53.482;10.238;2022-12-26T13:30:11;27.23;;;10.57;;
3881;SDS011;1956;53.482;10.238;2022-12-26T13:35:45;30.90;;;13.83;;
3881;SDS011;1956;53.482;10.238;2022-12-26T13:40:46;17.73;;;10.07;;
3881;SDS011;1956;53.482;10.238;2022-12-26T13:45:52;16.23;;;11.23;;
3881;SDS011;1956;53.482;10.238;2022-12-26T13:50:54;26.53;;;8.97;;
3881;SDS011;1956;53.482;10.238;2022-12-26T13:55:57;7.30;;;3.07;;
3881;SDS011;1956;53.482;10.238;2022-12-26T14:01:05;6.53;;;1.80;;
3881;SDS011;1956;53.482;10.238;2022-12-26T14:06:44;6.37;;;1.70;;
3881;SDS011;1956;53.482;10.238;2022-12-26T14:17:37;4.10;;;1.50;;
3881;SDS011;1956;53.482;10.238;2022-12-26T14:23:15;5.63;;;1.53;;
3881;SDS011;1956;53.482;10.238;2022-12-26T14:28:46;7.57;;;1.70;;
3881;SDS011;1956;53.482;10.238;2022-12-26T14:40:04;2.43;;;0.93;;
3881;SDS011;1956;53.482;10.238;2022-12-26T14:45:48;6.53;;;1.20;;
3881;SDS011;1956;53.482;10.238;2022-12-26T14:56:28;4.50;;;1.70;;
3881;SDS011;1956;53.482;10.238;2022-12-26T15:06:52;13.93;;;2.00;;
3881;SDS011;1956;53.482;10.238;2022-12-26T15:18:06;5.90;;;1.53;;
3881;SDS011;1956;53.482;10.238;2022-12-26T15:23:41;9.20;;;1.30;;
3881;SDS011;1956;53.482;10.238;2022-12-26T15:34:56;22.93;;;2.13;;
3881;SDS011;1956;53.482;10.238;2022-12-26T15:45:41;12.50;;;1.90;;
3881;SDS011;1956;53.482;10.238;2022-12-26T15:51:16;11.97;;;2.10;;
3881;SDS011;1956;53.482;10.238;2022-12-26T16:02:00;19.60;;;2.57;;
3881;SDS011;1956;53.482;10.238;2022-12-26T16:12:28;17.77;;;2.70;;
3881;SDS011;1956;53.482;10.238;2022-12-26T16:17:33;26.37;;;4.97;;
3881;SDS011;1956;53.482;10.238;2022-12-26T16:22:34;29.67;;;14.97;;
3881;SDS011;1956;53.482;10.238;2022-12-26T16:27:44;17.77;;;2.23;;
3881;SDS011;1956;53.482;10.238;2022-12-26T16:32:45;20.50;;;3.63;;
3881;SDS011;1956;53.482;10.238;2022-12-26T16:37:49;19.90;;;3.03;;
3881;SDS011;1956;53.482;10.238;2022-12-26T16:42:57;12.43;;;3.13;;
3881;SDS011;1956;53.482;10.238;2022-12-26T16:48:00;18.07;;;3.17;;
3881;SDS011;1956;53.482;10.238;2022-12-26T16:53:02;22.33;;;4.70;;
3881;SDS011;1956;53.482;10.238;2022-12-26T16:58:33;33.10;;;4.33;;
3881;SDS011;1956;53.482;10.238;2022-12-26T17:03:42;18.33;;;3.50;;
3881;SDS011;1956;53.482;10.238;2022-12-26T17:08:51;11.67;;;3.23;;
3881;SDS011;1956;53.482;10.238;2022-12-26T17:13:52;16.43;;;3.47;;
3881;SDS011;1956;53.482;10.238;2022-12-26T17:18:53;16.30;;;3.37;;
3881;SDS011;1956;53.482;10.238;2022-12-26T17:24:03;20.77;;;2.90;;
3881;SDS011;1956;53.482;10.238;2022-12-26T17:29:33;17.10;;;3.23;;
3881;SDS011;1956;53.482;10.238;2022-12-26T17:34:36;38.00;;;9.47;;
3881;SDS011;1956;53.482;10.238;2022-12-26T17:39:37;31.10;;;4.97;;
3881;SDS011;1956;53.482;10.238;2022-12-26T17:44:39;18.40;;;3.60;;
3881;SDS011;1956;53.482;10.238;2022-12-26T17:49:41;12.87;;;3.57;;
3881;SDS011;1956;53.482;10.238;2022-12-26T17:54:42;16.83;;;2.90;;
3881;SDS011;1956;53.482;10.238;2022-12-26T17:59:42;19.80;;;4.10;;
3881;SDS011;1956;53.482;10.238;2022-12-26T18:04:43;18.83;;;3.43;;
3881;SDS011;1956;53.482;10.238;2022-12-26T18:09:43;34.23;;;4.03;;
3881;SDS011;1956;53.482;10.238;2022-12-26T18:14:44;20.40;;;3.13;;
3881;SDS011;1956;53.482;10.238;2022-12-26T18:19:45;16.67;;;3.47;;
3881;SDS011;1956;53.482;10.238;2022-12-26T18:24:46;23.23;;;3.10;;
3881;SDS011;1956;53.482;10.238;2022-12-26T18:29:46;21.10;;;4.93;;
3881;SDS011;1956;53.482;10.238;2022-12-26T18:34:48;17.03;;;2.63;;
3881;SDS011;1956;53.482;10.238;2022-12-26T18:39:49;26.00;;;3.03;;
3881;SDS011;1956;53.482;10.238;2022-12-26T18:44:49;20.27;;;3.00;;
3881;SDS011;1956;53.482;10.238;2022-12-26T18:49:49;29.80;;;4.67;;
3881;SDS011;1956;53.482;10.238;2022-12-26T18:54:50;53.10;;;13.37;;
3881;SDS011;1956;53.482;10.238;2022-12-26T18:59:50;21.10;;;3.80;;
3881;SDS011;1956;53.482;10.238;2022-12-26T19:04:51;26.90;;;4.07;;
3881;SDS011;1956;53.482;10.238;2022-12-26T19:09:51;27.27;;;5.73;;
3881;SDS011;1956;53.482;10.238;2022-12-26T19:14:54;21.10;;;3.90;;
3881;SDS011;1956;53.482;10.238;2022-12-26T19:19:55;12.70;;;4.17;;
3881;SDS011;1956;53.482;10.238;2022-12-26T19:24:55;28.73;;;5.87;;
3881;SDS011;1956;53.482;10.238;2022-12-26T19:29:55;24.17;;;5.50;;
3881;SDS011;1956;53.482;10.238;2022-12-26T19:34:56;17.57;;;4.30;;
3881;SDS011;1956;53.482;10.238;2022-12-26T19:39:56;16.47;;;2.67;;
3881;SDS011;1956;53.482;10.238;2022-12-26T19:44:58;21.90;;;3.03;;
3881;SDS011;1956;53.482;10.238;2022-12-26T19:49:58;18.50;;;3.17;;
3881;SDS011;1956;53.482;10.238;2022-12-26T19:54:58;34.87;;;4.40;;
3881;SDS011;1956;53.482;10.238;2022-12-26T19:59:59;17.47;;;3.13;;
3881;SDS011;1956;53.482;10.238;2022-12-26T20:04:59;22.43;;;4.13;;
3881;SDS011;1956;53.482;10.238;2022-12-26T20:10:00;17.23;;;2.87;;
3881;SDS011;1956;53.482;10.238;2022-12-26T20:15:00;22.93;;;3.77;;
3881;SDS011;1956;53.482;10.238;2022-12-26T20:20:00;10.13;;;2.80;;
3881;SDS011;1956;53.482;10.238;2022-12-26T20:25:01;19.90;;;3.87;;
3881;SDS011;1956;53.482;10.238;2022-12-26T20:30:02;19.90;;;3.40;;
3881;SDS011;1956;53.482;10.238;2022-12-26T20:35:03;13.67;;;3.27;;
3881;SDS011;1956;53.482;10.238;2022-12-26T20:40:04;26.80;;;3.13;;
3881;SDS011;1956;53.482;10.238;2022-12-26T20:45:05;12.37;;;2.97;;
3881;SDS011;1956;53.482;10.238;2022-12-26T20:50:06;12.70;;;2.57;;
3881;SDS011;1956;53.482;10.238;2022-12-26T20:55:07;15.73;;;3.50;;
3881;SDS011;1956;53.482;10.238;2022-12-26T21:00:08;16.20;;;4.20;;
3881;SDS011;1956;53.482;10.238;2022-12-26T21:05:09;18.10;;;3.80;;
3881;SDS011;1956;53.482;10.238;2022-12-26T21:10:10;18.70;;;3.37;;
3881;SDS011;1956;53.482;10.238;2022-12-26T21:15:10;21.13;;;3.10;;
3881;SDS011;1956;53.482;10.238;2022-12-26T21:20:10;15.50;;;6.43;;
3881;SDS011;1956;53.482;10.238;2022-12-26T21:25:12;19.13;;;3.40;;
3881;SDS011;1956;53.482;10.238;2022-12-26T21:30:13;21.97;;;3.77;;
3881;SDS011;1956;53.482;10.238;2022-12-26T21:35:14;7.33;;;2.83;;
3881;SDS011;1956;53.482;10.238;2022-12-26T21:40:14;24.80;;;3.70;;
3881;SDS011;1956;53.482;10.238;2022-12-26T21:45:15;17.50;;;4.03;;
3881;SDS011;1956;53.482;10.238;2022-12-26T21:50:15;64.13;;;6.87;;
3881;SDS011;1956;53.482;10.238;2022-12-26T21:55:16;18.40;;;3.63;;
3881;SDS011;1956;53.482;10.238;2022-12-26T22:00:25;17.40;;;2.67;;
3881;SDS011;1956;53.482;10.238;2022-12-26T22:05:27;17.07;;;2.60;;
3881;SDS011;1956;53.482;10.238;2022-12-26T22:10:29;10.30;;;2.57;;
3881;SDS011;1956;53.482;10.238;2022-12-26T22:15:50;22.33;;;2.73;;
3881;SDS011;1956;53.482;10.238;2022-12-26T22:21:07;15.10;;;3.13;;
3881;SDS011;1956;53.482;10.238;2022-12-26T22:26:13;18.80;;;3.10;;
3881;SDS011;1956;53.482;10.238;2022-12-26T22:31:22;8.07;;;2.50;;
3881;SDS011;1956;53.482;10.238;2022-12-26T22:36:24;12.17;;;2.90;;
3881;SDS011;1956;53.482;10.238;2022-12-26T22:41:25;16.40;;;3.00;;
3881;SDS011;1956;53.482;10.238;2022-12-26T22:46:26;12.73;;;2.50;;
3881;SDS011;1956;53.482;10.238;2022-12-26T22:51:27;11.97;;;2.87;;
3881;SDS011;1956;53.482;10.238;2022-12-26T22:56:27;22.27;;;2.43;;
3881;SDS011;1956;53.482;10.238;2022-12-26T23:01:28;8.83;;;1.83;;
3881;SDS011;1956;53.482;10.238;2022-12-26T23:06:30;18.93;;;3.20;;
3881;SDS011;1956;53.482;10.238;2022-12-26T23:11:32;13.23;;;2.33;;
3881;SDS011;1956;53.482;10.238;2022-12-26T23:16:44;23.27;;;3.83;;
3881;SDS011;1956;53.482;10.238;2022-12-26T23:21:53;10.80;;;3.20;;
3881;SDS011;1956;53.482;10.238;2022-12-26T23:26:56;10.83;;;2.70;;
3881;SDS011;1956;53.482;10.238;2022-12-26T23:32:22;9.10;;;3.00;;
3881;SDS011;1956;53.482;10.238;2022-12-26T23:37:23;11.47;;;2.30;;
3881;SDS011;1956;53.482;10.238;2022-12-26T23:42:23;14.73;;;2.73;;
3881;SDS011;1956;53.482;10.238;2022-12-26T23:47:24;12.70;;;3.17;;
3881;SDS011;1956;53.482;10.238;2022-12-26T23:52:24;21.60;;;2.77;;
3881;SDS011;1956;53.482;10.238;2022-12-26T23:57:25;14.87;;;1.97;;
